Villa Beach, Washington
Current Conditions -  °F | °C
As of 2:08 AM on Sunday 23 Nov 2014 (Local Time) from KGRF Reporting Station
Drizzle Drizzle  
Wind Chill: 42°   Ceiling: 3800
Heat Index: 46°   Visibility: 10mi
Dew Point: 45°   Wind: 8mph
Humidity: 93%   Direction: 170°S
Pressure: 30.18"   Gusts: NA
Location:  47.1608°N, 122.692°W
Report Text: KGRF 231008Z AUTO 17007KT 10SM DZ SCT027 BKN038 OVC110 08/07 A3018 RMK AO2
Loading
Personal Weather Stations






























Interactive Weather Map New forecast layout! Learn more

10-Day Weather Forecast

Advertisements
Track Severe Weather on mobile